LFML METAR and TAF | Updated Today

LFML METAR

Marseille Provence Airport

Observation time: 18 min. ago

LFML 260200Z AUTO 14004KT CAVOK 24/20 Q1012 NOSIG

Need help? Read our tutorial on how to read METARs or read the parsed version below.

Marseille Provence Airport (LFML) METAR

  • Weather conditions on Sun, 26 Jun 2022 02:00:00 +0000 (18 min. ago):
  • Present conditions: Dry
  • Clouds: Clear skies
  • Visibility: Greater than 10 km
  • Wind: 140 degrees at 4 knots
  • Temperature: 24 celsius
  • Dew point: 20 celsius
  • Pressure: 1012 millibars
  • Remarks: None


Useful to know...

LFML TAF

Marseille Provence Airport

TAF LFML 252000Z 2521/2703 17007KT CAVOK TX34/2613Z TN22/2604Z TEMPO 2612/2617 18015G30KT
Observation time: 6:18 hr. ago
Need help? Read our tutorial on how to read TAFs or read the parsed version below.

Parsed version of TAF for Marseille Provence Airport (LFML)

  • From 25 June at 21:00 UTC, to day 27 of the month at 03:00 UTC
  • Visibility: Greater than 10 km
  • Wind: 170 degrees at 7
  • Expected to arise temporarily, from 26 June at 12:00 UTC, to day 26 of the month at 17:00 UTC
  • Wind: 180 degrees at 15